McCallsburg, Iowa
Current Conditions -  °F | °C
As of 8:53 PM on Friday 21 Nov 2014 (Local Time) from KAMW Reporting Station
Overcast Overcast  
Wind Chill: 28°   Ceiling: 1800
Heat Index: 35°   Visibility: 10mi
Dew Point: 26°   Wind: 9mph
Humidity: 70%   Direction: 170°S
Pressure: 30.05"   Gusts: NA
Location:  42.17°N, 93.39°W
Report Text: KAMW 220253Z AUTO 17008KT 10SM OVC018 02/M03 A3005 RMK AO2 SLP186 T00171033 58013
Loading
Personal Weather Stations






























Interactive Weather Map New forecast layout! Learn more

10-Day Weather Forecast

Advertisements
Track Severe Weather on mobile